createdAt,value
2024-02-02T00:00:09.694Z,2.78
2024-02-02T00:02:57.315Z,2.78
2024-02-02T00:05:24.897Z,2.78
2024-02-02T00:07:52.435Z,2.79
2024-02-02T00:10:20.001Z,2.79
2024-02-02T00:12:47.478Z,2.78
2024-02-02T00:15:15.062Z,2.77
2024-02-02T00:17:42.846Z,2.77
2024-02-02T00:20:10.451Z,2.79
2024-02-02T00:22:38.069Z,2.80
2024-02-02T00:25:05.656Z,2.79
2024-02-02T00:27:33.196Z,2.77
2024-02-02T00:30:00.798Z,2.77
2024-02-02T00:32:28.504Z,2.75
2024-02-02T00:34:56.143Z,2.76
2024-02-02T00:37:23.693Z,2.78
2024-02-02T00:39:51.207Z,2.78
2024-02-02T00:42:18.814Z,2.77
2024-02-02T00:44:46.876Z,2.76
2024-02-02T00:47:14.437Z,2.74
2024-02-02T00:49:41.980Z,2.75
2024-02-02T00:52:09.689Z,2.78
2024-02-02T00:54:37.383Z,2.78
2024-02-02T00:57:05.207Z,2.78
2024-02-02T00:59:32.773Z,2.77
2024-02-02T01:02:00.464Z,2.77
2024-02-02T01:04:28.109Z,2.78
2024-02-02T01:06:55.892Z,2.80
2024-02-02T01:09:23.583Z,2.81
2024-02-02T01:11:51.139Z,2.80
2024-02-02T01:14:18.647Z,2.78
2024-02-02T01:16:46.283Z,2.78
2024-02-02T01:19:13.881Z,2.80
2024-02-02T01:21:41.484Z,2.80
2024-02-02T01:24:09.051Z,2.79
2024-02-02T01:26:36.576Z,2.78
2024-02-02T01:29:04.074Z,2.77
2024-02-02T01:31:31.674Z,2.81
2024-02-02T01:33:59.311Z,2.81
2024-02-02T01:36:26.980Z,2.80
2024-02-02T01:38:54.749Z,2.79
2024-02-02T01:41:22.272Z,2.80
2024-02-02T01:43:49.814Z,2.81
2024-02-02T01:46:17.338Z,2.81
2024-02-02T01:48:45.098Z,2.81
2024-02-02T01:51:12.813Z,2.80
2024-02-02T01:53:40.309Z,2.82
2024-02-02T01:56:07.905Z,2.85
2024-02-02T01:58:35.401Z,2.87
2024-02-02T02:01:02.948Z,2.84
2024-02-02T02:03:30.945Z,2.83
2024-02-02T02:05:58.788Z,2.86
2024-02-02T02:08:26.364Z,2.88
2024-02-02T02:10:53.854Z,2.87
2024-02-02T02:13:21.433Z,2.87
2024-02-02T02:15:48.943Z,2.85
2024-02-02T02:18:16.598Z,2.83
2024-02-02T02:20:44.360Z,2.84
2024-02-02T02:23:12.207Z,2.84
2024-02-02T02:25:39.742Z,2.85
2024-02-02T02:28:07.279Z,2.83
2024-02-02T02:30:34.950Z,2.81
2024-02-02T02:33:02.751Z,2.80
2024-02-02T02:35:31.181Z,2.81
2024-02-02T02:37:58.868Z,2.81
2024-02-02T02:40:26.429Z,2.81
2024-02-02T02:42:53.945Z,2.79
2024-02-02T02:45:21.581Z,2.77
2024-02-02T02:47:49.447Z,2.74
2024-02-02T02:50:17.103Z,2.74
2024-02-02T02:52:44.602Z,2.74
2024-02-02T02:55:12.478Z,2.73
2024-02-02T02:57:40.137Z,2.71
2024-02-02T03:00:07.776Z,2.69
2024-02-02T03:02:35.333Z,2.68
2024-02-02T03:05:02.834Z,2.70
2024-02-02T03:07:30.502Z,2.70
2024-02-02T03:09:58.382Z,2.67
2024-02-02T03:12:28.421Z,2.65
2024-02-02T03:14:56.155Z,2.61
2024-02-02T03:17:23.812Z,2.58
2024-02-02T03:19:51.332Z,2.59
2024-02-02T03:22:18.864Z,2.58
2024-02-02T03:24:46.412Z,2.55
2024-02-02T03:27:13.914Z,2.51
2024-02-02T03:29:41.389Z,2.51
2024-02-02T03:32:08.926Z,2.52
2024-02-02T03:34:36.481Z,2.50
2024-02-02T03:37:04.064Z,2.48
2024-02-02T03:39:31.802Z,2.45
2024-02-02T03:41:59.444Z,2.42
2024-02-02T03:44:27.070Z,2.41
2024-02-02T03:46:54.580Z,2.42
2024-02-02T03:49:22.274Z,2.41
2024-02-02T03:51:50.063Z,2.37
2024-02-02T03:54:17.640Z,2.34
2024-02-02T03:56:45.191Z,2.31
2024-02-02T03:59:12.770Z,2.30
2024-02-02T04:01:40.323Z,2.28
2024-02-02T04:04:07.886Z,2.24
2024-02-02T04:06:35.844Z,2.20
2024-02-02T04:09:03.380Z,2.17
2024-02-02T04:11:30.979Z,2.16
2024-02-02T04:13:58.635Z,2.15
2024-02-02T04:16:26.139Z,2.13
2024-02-02T04:18:53.760Z,2.11
2024-02-02T04:21:21.540Z,2.10
2024-02-02T04:23:49.129Z,2.11
2024-02-02T04:26:16.658Z,2.10
2024-02-02T04:28:44.180Z,2.09
2024-02-02T04:31:11.673Z,2.08
2024-02-02T04:33:39.267Z,2.08
2024-02-02T04:36:06.896Z,2.07
2024-02-02T04:38:34.407Z,2.09
2024-02-02T04:41:01.956Z,2.11
2024-02-02T04:43:29.508Z,2.10
2024-02-02T04:45:58.017Z,2.10
2024-02-02T04:48:26.069Z,2.09
2024-02-02T04:50:53.785Z,2.07
2024-02-02T04:53:21.352Z,2.09
2024-02-02T04:55:48.958Z,2.10
2024-02-02T04:58:16.462Z,2.11
2024-02-02T05:00:44.129Z,2.10
2024-02-02T05:03:11.745Z,2.09
2024-02-02T05:05:39.503Z,2.08
2024-02-02T05:08:07.197Z,2.09
2024-02-02T05:10:34.758Z,2.12
2024-02-02T05:13:02.275Z,2.12
2024-02-02T05:15:29.880Z,2.11
2024-02-02T05:17:57.555Z,2.11
2024-02-02T05:20:25.362Z,2.11
2024-02-02T05:22:53.049Z,2.14
2024-02-02T05:25:20.604Z,2.16
2024-02-02T05:27:48.179Z,2.17
2024-02-02T05:30:15.780Z,2.17
2024-02-02T05:32:43.490Z,2.17
2024-02-02T05:35:11.234Z,2.16
2024-02-02T05:37:38.766Z,2.16
2024-02-02T05:40:06.299Z,2.19
2024-02-02T05:42:33.891Z,2.22
2024-02-02T05:45:01.417Z,2.24
2024-02-02T05:47:29.015Z,2.23
2024-02-02T05:49:56.668Z,2.19
2024-02-02T05:52:24.286Z,2.12
2024-02-02T05:54:51.789Z,2.04
2024-02-02T05:57:19.355Z,2.01
2024-02-02T05:59:46.867Z,2.02
2024-02-02T06:02:14.448Z,2.03
2024-02-02T06:04:42.011Z,2.02
2024-02-02T06:07:09.690Z,2.01
2024-02-02T06:09:37.632Z,2.02
2024-02-02T06:12:05.149Z,2.06
2024-02-02T06:14:32.639Z,2.07
2024-02-02T06:17:00.198Z,2.09
2024-02-02T06:19:27.833Z,2.05
2024-02-02T06:21:55.373Z,2.03
2024-02-02T06:24:22.982Z,1.99
2024-02-02T06:26:50.539Z,2.03
2024-02-02T06:29:18.141Z,2.04
2024-02-02T06:31:45.660Z,2.01
2024-02-02T06:34:13.641Z,1.99
2024-02-02T06:36:41.293Z,1.99
2024-02-02T06:39:08.916Z,2.01
2024-02-02T06:41:36.732Z,2.02
2024-02-02T06:44:04.302Z,1.99
2024-02-02T06:46:31.821Z,1.96
2024-02-02T06:48:59.375Z,1.97
2024-02-02T06:51:26.952Z,1.99
2024-02-02T06:53:54.579Z,1.99
2024-02-02T06:56:22.117Z,1.98
2024-02-02T06:58:49.608Z,1.95
2024-02-02T07:01:17.302Z,1.92
2024-02-02T07:03:44.954Z,1.92
2024-02-02T07:06:12.648Z,1.93
2024-02-02T07:08:40.250Z,1.94
2024-02-02T07:11:07.788Z,1.93
2024-02-02T07:13:35.388Z,1.90
2024-02-02T07:16:02.905Z,1.90
2024-02-02T07:18:31.221Z,1.91
2024-02-02T07:20:58.798Z,1.94
2024-02-02T07:23:26.464Z,1.95
2024-02-02T07:25:53.940Z,1.92
2024-02-02T07:28:21.434Z,1.94
2024-02-02T07:30:49.064Z,1.93
2024-02-02T07:33:16.792Z,1.90
2024-02-02T07:35:44.543Z,1.92
2024-02-02T07:38:12.077Z,1.92
2024-02-02T07:40:39.544Z,1.91
2024-02-02T07:43:07.092Z,1.90
2024-02-02T07:45:34.701Z,1.88
2024-02-02T07:48:02.390Z,1.86
2024-02-02T07:50:29.931Z,1.89
2024-02-02T07:52:57.521Z,1.89
2024-02-02T07:55:25.025Z,1.88
2024-02-02T07:57:52.648Z,1.87
2024-02-02T08:00:20.232Z,1.87
2024-02-02T08:02:47.954Z,1.88
2024-02-02T08:05:15.495Z,1.89
2024-02-02T08:07:42.972Z,1.93
2024-02-02T08:10:10.650Z,1.96
2024-02-02T08:12:38.335Z,1.99
2024-02-02T08:15:06.010Z,2.02
2024-02-02T08:17:33.581Z,2.05
2024-02-02T08:20:01.201Z,2.10
2024-02-02T08:22:28.979Z,2.14
2024-02-02T08:24:56.551Z,2.19
2024-02-02T08:27:24.189Z,2.23
2024-02-02T08:29:51.673Z,2.26
2024-02-02T08:32:19.203Z,2.29
2024-02-02T08:34:46.758Z,2.35
2024-02-02T08:37:14.265Z,2.40
2024-02-02T08:39:41.883Z,2.43
2024-02-02T08:42:09.455Z,2.46
2024-02-02T08:44:37.095Z,2.49
2024-02-02T08:47:04.683Z,2.54
2024-02-02T08:49:33.227Z,2.60
2024-02-02T08:52:00.823Z,2.63
2024-02-02T08:54:28.482Z,2.64
2024-02-02T08:56:56.225Z,2.68
2024-02-02T08:59:23.774Z,2.71
2024-02-02T09:01:51.275Z,2.77
2024-02-02T09:04:19.941Z,2.79
2024-02-02T09:06:47.809Z,2.82
2024-02-02T09:09:15.538Z,2.83
2024-02-02T09:11:43.141Z,2.84
2024-02-02T09:14:10.631Z,2.88
2024-02-02T09:16:38.222Z,2.92
2024-02-02T09:19:05.876Z,2.95
2024-02-02T09:21:33.578Z,2.98
2024-02-02T09:24:01.250Z,2.99
2024-02-02T09:26:28.894Z,3.02
2024-02-02T09:28:56.510Z,3.02
2024-02-02T09:31:24.266Z,3.02
2024-02-02T09:33:52.064Z,3.03
2024-02-02T09:36:19.812Z,3.10
2024-02-02T09:38:47.424Z,3.16
2024-02-02T09:41:14.986Z,3.18
2024-02-02T09:43:42.486Z,3.22
2024-02-02T09:46:10.022Z,3.26
2024-02-02T09:48:37.687Z,3.30
2024-02-02T09:51:05.644Z,3.36
2024-02-02T09:53:33.192Z,3.40
2024-02-02T09:56:00.912Z,3.42
2024-02-02T09:58:28.436Z,3.43
2024-02-02T10:00:56.057Z,3.43
2024-02-02T10:03:23.921Z,3.45
2024-02-02T10:05:51.627Z,3.47
2024-02-02T10:08:19.170Z,3.48
2024-02-02T10:10:46.759Z,3.48
2024-02-02T10:13:14.332Z,3.50
2024-02-02T10:15:41.877Z,3.53
2024-02-02T10:18:09.550Z,3.59
2024-02-02T10:20:37.174Z,3.65
2024-02-02T10:23:04.713Z,3.68
2024-02-02T10:25:32.271Z,3.69
2024-02-02T10:27:59.744Z,3.70
2024-02-02T10:30:27.350Z,3.70
2024-02-02T10:32:55.086Z,3.74
2024-02-02T10:35:22.717Z,3.76
2024-02-02T10:37:50.244Z,3.78
2024-02-02T10:40:17.829Z,3.81
2024-02-02T10:42:45.351Z,3.83
2024-02-02T10:45:13.039Z,3.84
2024-02-02T10:47:40.624Z,3.87
2024-02-02T10:50:08.280Z,3.91
2024-02-02T10:52:35.916Z,3.95
2024-02-02T10:55:03.620Z,3.97
2024-02-02T10:57:31.355Z,3.98
2024-02-02T10:59:58.920Z,4.01
2024-02-02T11:02:26.545Z,4.05
2024-02-02T11:04:54.185Z,4.11
2024-02-02T11:07:22.052Z,4.12
2024-02-02T11:09:49.678Z,4.12
2024-02-02T11:12:17.234Z,4.15
2024-02-02T11:14:44.911Z,4.19
2024-02-02T11:17:12.573Z,4.24
2024-02-02T11:19:40.440Z,4.31
2024-02-02T11:22:08.069Z,4.35
2024-02-02T11:24:35.767Z,4.39
2024-02-02T11:27:03.364Z,4.40
2024-02-02T11:29:30.869Z,4.42
2024-02-02T11:31:58.528Z,4.43
2024-02-02T11:34:26.215Z,4.47
2024-02-02T11:36:53.975Z,4.48
2024-02-02T11:39:21.638Z,4.50
2024-02-02T11:41:49.246Z,4.51
2024-02-02T11:44:16.777Z,4.52
2024-02-02T11:46:44.320Z,4.55
2024-02-02T11:49:11.933Z,4.60
2024-02-02T11:51:39.711Z,4.63
2024-02-02T11:54:07.623Z,4.64
2024-02-02T11:56:35.281Z,4.67
2024-02-02T11:59:02.839Z,4.68
2024-02-02T12:01:30.403Z,4.68
2024-02-02T12:03:57.899Z,4.66
2024-02-02T12:06:25.627Z,4.68
2024-02-02T12:08:53.386Z,4.71
2024-02-02T12:11:29.180Z,4.72
2024-02-02T12:14:01.149Z,4.76
2024-02-02T12:16:28.696Z,4.78
2024-02-02T12:18:56.362Z,4.78
2024-02-02T12:21:23.950Z,4.82
2024-02-02T12:23:51.585Z,4.85
2024-02-02T12:26:19.184Z,4.88
2024-02-02T12:28:46.735Z,4.93
2024-02-02T12:31:14.512Z,4.97
2024-02-02T12:33:42.157Z,4.98
2024-02-02T12:36:12.699Z,5.01
2024-02-02T12:38:40.794Z,5.04
2024-02-02T12:41:08.349Z,5.05
2024-02-02T12:43:35.918Z,5.07
2024-02-02T12:46:03.474Z,5.08
2024-02-02T12:48:31.243Z,5.13
2024-02-02T12:50:58.985Z,5.14
2024-02-02T12:53:26.660Z,5.15
2024-02-02T12:55:54.280Z,5.15
2024-02-02T12:58:23.548Z,5.15
2024-02-02T13:00:51.107Z,5.16
2024-02-02T13:03:19.010Z,5.15
2024-02-02T13:05:47.111Z,5.18
2024-02-02T13:08:14.964Z,5.21
2024-02-02T13:10:42.528Z,5.22
2024-02-02T13:13:10.026Z,5.23
2024-02-02T13:15:37.611Z,5.21
2024-02-02T13:18:05.201Z,5.22
2024-02-02T13:20:32.743Z,5.21
2024-02-02T13:23:00.341Z,5.21
2024-02-02T13:25:27.865Z,5.21
2024-02-02T13:27:55.434Z,5.24
2024-02-02T13:30:23.160Z,5.24
2024-02-02T13:32:50.751Z,5.24
2024-02-02T13:35:18.390Z,5.23
2024-02-02T13:37:46.137Z,5.21
2024-02-02T13:40:13.760Z,5.17
2024-02-02T13:42:41.504Z,5.16
2024-02-02T13:45:09.431Z,5.17
2024-02-02T13:47:45.191Z,5.16
2024-02-02T13:50:12.904Z,5.18
2024-02-02T13:52:40.791Z,5.18
2024-02-02T13:55:08.491Z,5.17
2024-02-02T13:57:36.187Z,5.17
2024-02-02T14:00:03.830Z,5.16
2024-02-02T14:02:31.407Z,5.16
2024-02-02T14:04:59.044Z,5.14
2024-02-02T14:07:26.688Z,5.15
2024-02-02T14:09:54.359Z,5.14
2024-02-02T14:12:22.109Z,5.13
2024-02-02T14:14:50.166Z,5.14
2024-02-02T14:17:18.110Z,5.17
2024-02-02T14:19:45.755Z,5.15
2024-02-02T14:22:13.306Z,5.15
2024-02-02T14:24:40.899Z,5.14
2024-02-02T14:27:08.655Z,5.14
2024-02-02T14:29:36.253Z,5.13
2024-02-02T14:32:03.794Z,5.12
2024-02-02T14:34:31.485Z,5.10
2024-02-02T14:36:59.138Z,5.09
2024-02-02T14:39:26.997Z,5.11
2024-02-02T14:41:54.944Z,5.10
2024-02-02T14:44:22.490Z,5.08
2024-02-02T14:46:50.012Z,5.06
2024-02-02T14:49:17.938Z,5.02
2024-02-02T14:51:45.616Z,5.03
2024-02-02T14:54:13.160Z,5.00
2024-02-02T14:56:40.738Z,4.99
2024-02-02T14:59:08.275Z,4.97
2024-02-02T15:01:35.882Z,4.99
2024-02-02T15:04:03.583Z,5.00
2024-02-02T15:06:31.403Z,4.98
2024-02-02T15:08:59.007Z,4.96
2024-02-02T15:11:26.622Z,4.94
2024-02-02T15:13:54.231Z,4.94
2024-02-02T15:16:21.734Z,4.92
2024-02-02T15:18:49.386Z,4.91
2024-02-02T15:21:16.987Z,4.90
2024-02-02T15:23:44.512Z,4.89
2024-02-02T15:26:12.031Z,4.90
2024-02-02T15:28:39.568Z,4.88
2024-02-02T15:31:07.270Z,4.87
2024-02-02T15:33:34.999Z,4.84
2024-02-02T15:39:15.307Z,4.79
2024-02-02T15:41:49.037Z,4.76
2024-02-02T15:44:16.621Z,4.75
2024-02-02T15:46:44.605Z,4.76
2024-02-02T15:49:12.188Z,4.73
2024-02-02T15:51:39.995Z,4.71
2024-02-02T15:54:07.966Z,4.68
2024-02-02T15:56:35.499Z,4.66
2024-02-02T15:59:03.042Z,4.64
2024-02-02T16:01:30.630Z,4.63
2024-02-02T16:03:58.219Z,4.64
2024-02-02T16:06:25.794Z,4.62
2024-02-02T16:08:53.413Z,4.60
2024-02-02T16:11:20.895Z,4.58
2024-02-02T16:13:55.246Z,4.55
2024-02-02T16:16:22.903Z,4.52
2024-02-02T16:18:50.580Z,4.52
2024-02-02T16:21:18.346Z,4.49
2024-02-02T16:23:45.915Z,4.49
2024-02-02T16:26:13.445Z,4.46
2024-02-02T16:28:40.990Z,4.43
2024-02-02T16:31:08.567Z,4.40
2024-02-02T16:33:36.249Z,4.38
2024-02-02T16:36:03.873Z,4.38
2024-02-02T16:38:31.899Z,4.36
2024-02-02T16:40:59.421Z,4.33
2024-02-02T16:43:26.976Z,4.31
2024-02-02T16:45:54.623Z,4.29
2024-02-02T16:48:22.429Z,4.26
2024-02-02T16:50:50.024Z,4.26
2024-02-02T16:53:17.515Z,4.23
2024-02-02T16:55:45.426Z,4.20
2024-02-02T16:58:13.006Z,4.18
2024-02-02T17:00:40.563Z,4.14
2024-02-02T17:03:09.231Z,4.11
2024-02-02T17:05:37.846Z,4.11
2024-02-02T17:08:05.414Z,4.10
2024-02-02T17:10:33.506Z,4.05
2024-02-02T17:13:01.165Z,4.03
2024-02-02T17:15:28.768Z,4.01
2024-02-02T17:17:56.370Z,3.99
2024-02-02T17:20:24.076Z,4.00
2024-02-02T17:22:51.688Z,4.00
2024-02-02T17:25:19.204Z,3.99
2024-02-02T17:27:46.958Z,3.96
2024-02-02T17:30:14.818Z,3.95
2024-02-02T17:32:42.538Z,3.92
2024-02-02T17:35:10.387Z,3.93
2024-02-02T17:37:39.510Z,3.93
2024-02-02T17:40:07.734Z,3.92
2024-02-02T17:42:35.303Z,3.90
2024-02-02T17:45:02.859Z,3.88
2024-02-02T17:47:30.553Z,3.87
2024-02-02T17:49:59.621Z,3.88
2024-02-02T17:52:28.322Z,3.88
2024-02-02T17:54:56.024Z,3.86
2024-02-02T17:57:23.924Z,3.85
2024-02-02T17:59:51.395Z,3.83
2024-02-02T18:02:18.941Z,3.82
2024-02-02T18:04:46.619Z,3.84
2024-02-02T18:07:14.299Z,3.83
2024-02-02T18:09:41.898Z,3.82
2024-02-02T18:12:09.404Z,3.80
2024-02-02T18:14:36.927Z,3.82
2024-02-02T18:17:04.502Z,3.82
2024-02-02T18:19:32.147Z,3.81
2024-02-02T18:21:59.693Z,3.81
2024-02-02T18:24:27.280Z,3.80
2024-02-02T18:26:55.020Z,3.79
2024-02-02T18:29:22.616Z,3.82
2024-02-02T18:31:50.122Z,3.81
2024-02-02T18:34:17.726Z,3.80
2024-02-02T18:36:45.411Z,3.80
2024-02-02T18:39:13.194Z,3.78
2024-02-02T18:41:40.751Z,3.81
2024-02-02T18:44:08.451Z,3.81
2024-02-02T18:46:35.967Z,3.80
2024-02-02T18:49:03.590Z,3.79
2024-02-02T18:51:31.240Z,3.79
2024-02-02T18:53:58.823Z,3.81
2024-02-02T18:56:26.372Z,3.82
2024-02-02T18:58:53.958Z,3.82
2024-02-02T19:01:21.543Z,3.82
2024-02-02T19:03:49.180Z,3.82
2024-02-02T19:06:17.024Z,3.85
2024-02-02T19:08:44.775Z,3.86
2024-02-02T19:11:12.384Z,3.87
2024-02-02T19:13:39.973Z,3.86
2024-02-02T19:16:07.573Z,3.86
2024-02-02T19:18:35.294Z,3.89
2024-02-02T19:21:02.876Z,3.87
2024-02-02T19:23:30.421Z,3.88
2024-02-02T19:25:57.978Z,3.87
2024-02-02T19:28:25.504Z,3.88
2024-02-02T19:30:53.113Z,3.90
2024-02-02T19:33:20.779Z,3.91
2024-02-02T19:35:48.435Z,3.91
2024-02-02T19:38:16.065Z,3.90
2024-02-02T19:40:43.594Z,3.90
2024-02-02T19:43:11.143Z,3.93
2024-02-02T19:45:38.783Z,3.95
2024-02-02T19:48:06.474Z,3.94
2024-02-02T19:50:34.347Z,3.95
2024-02-02T19:53:02.002Z,3.94
2024-02-02T19:55:29.661Z,3.97
2024-02-02T19:57:57.371Z,3.98
2024-02-02T20:00:24.937Z,3.98
2024-02-02T20:02:52.513Z,3.98
2024-02-02T20:05:23.706Z,3.97
2024-02-02T20:07:52.788Z,3.99
2024-02-02T20:10:20.351Z,4.02
2024-02-02T20:12:47.866Z,4.02
2024-02-02T20:15:15.605Z,4.01
2024-02-02T20:17:43.144Z,4.00
2024-02-02T20:20:10.686Z,4.02
2024-02-02T20:22:38.263Z,4.05
2024-02-02T20:25:05.929Z,4.05
2024-02-02T20:27:33.517Z,4.04
2024-02-02T20:30:01.039Z,4.04
2024-02-02T20:32:28.615Z,4.06
2024-02-02T20:34:56.282Z,4.08
2024-02-02T20:37:23.893Z,4.06
2024-02-02T20:39:51.940Z,4.07
2024-02-02T20:42:19.554Z,4.07
2024-02-02T20:44:47.130Z,4.09
2024-02-02T20:47:14.678Z,4.10
2024-02-02T20:49:42.216Z,4.10
2024-02-02T20:52:09.789Z,4.10
2024-02-02T20:54:37.353Z,4.10
2024-02-02T20:57:05.004Z,4.12
2024-02-02T20:59:32.634Z,4.13
2024-02-02T21:02:00.212Z,4.13
2024-02-02T21:04:27.930Z,4.12
2024-02-02T21:06:55.653Z,4.12
2024-02-02T21:09:23.272Z,4.12
2024-02-02T21:11:53.238Z,4.12
2024-02-02T21:14:20.784Z,4.13
2024-02-02T21:16:48.408Z,4.12
2024-02-02T21:19:16.040Z,4.11
2024-02-02T21:21:43.643Z,4.11
2024-02-02T21:24:11.216Z,4.13
2024-02-02T21:26:38.788Z,4.13
2024-02-02T21:29:06.465Z,4.12
2024-02-02T21:31:33.962Z,4.12
2024-02-02T21:34:01.517Z,4.11
2024-02-02T21:36:29.118Z,4.13
2024-02-02T21:38:57.061Z,4.14
2024-02-02T21:41:24.576Z,4.13
2024-02-02T21:43:52.066Z,4.12
2024-02-02T21:46:19.581Z,4.12
2024-02-02T21:48:47.128Z,4.14
2024-02-02T21:51:14.827Z,4.14
2024-02-02T21:53:42.359Z,4.13
2024-02-02T21:56:09.866Z,4.13
2024-02-02T21:58:37.461Z,4.13
2024-02-02T22:01:05.213Z,4.15
2024-02-02T22:03:32.856Z,4.14
2024-02-02T22:06:00.402Z,4.15
2024-02-02T22:08:27.959Z,4.13
2024-02-02T22:10:55.844Z,4.13
2024-02-02T22:13:23.366Z,4.16
2024-02-02T22:15:50.944Z,4.15
2024-02-02T22:18:18.617Z,4.15
2024-02-02T22:20:46.431Z,4.14
2024-02-02T22:23:14.675Z,4.16
2024-02-02T22:25:42.320Z,4.20
2024-02-02T22:28:09.819Z,4.21
2024-02-02T22:30:37.419Z,4.20
2024-02-02T22:33:05.124Z,4.19
2024-02-02T22:35:32.676Z,4.19
2024-02-02T22:38:00.234Z,4.21
2024-02-02T22:40:27.741Z,4.23
2024-02-02T22:42:55.708Z,4.24
2024-02-02T22:45:23.210Z,4.24
2024-02-02T22:47:50.867Z,4.24
2024-02-02T22:50:18.582Z,4.24
2024-02-02T22:52:46.403Z,4.27
2024-02-02T22:55:14.168Z,4.29
2024-02-02T22:57:41.690Z,4.29
2024-02-02T23:00:09.321Z,4.29
2024-02-02T23:02:36.973Z,4.29
2024-02-02T23:05:04.442Z,4.31
2024-02-02T23:07:32.017Z,4.34
2024-02-02T23:09:59.596Z,4.35
2024-02-02T23:12:27.201Z,4.35
2024-02-02T23:14:54.890Z,4.34
2024-02-02T23:17:22.542Z,4.34
2024-02-02T23:19:50.218Z,4.34
2024-02-02T23:22:18.209Z,4.36
2024-02-02T23:24:45.824Z,4.39
2024-02-02T23:27:13.416Z,4.39
2024-02-02T23:29:41.000Z,4.38
2024-02-02T23:32:08.567Z,4.38
2024-02-02T23:34:36.200Z,4.40
2024-02-02T23:37:03.824Z,4.43
2024-02-02T23:39:31.368Z,4.43
2024-02-02T23:41:58.908Z,4.42
2024-02-02T23:44:26.431Z,4.43
2024-02-02T23:46:54.019Z,4.44
2024-02-02T23:49:21.689Z,4.47
2024-02-02T23:51:49.691Z,4.49
2024-02-02T23:54:17.277Z,4.49
2024-02-02T23:56:44.884Z,4.50
2024-02-02T23:59:12.524Z,4.51
